PWSweather.com
Personal Weather Stations
Station Observations
KILGILBE2
Gilberts, Il, Gilberts, IL 60136

Gilberts, IlGilberts, IL 60136

Lat: 42.076848, Lon: -88.367858

Elevation: 922

Station Type: Ambient WS-1090

http://weather2.starosta.org

Latest ConditionsUpdated 4:15:02 PM CDT Thursday, Sep 21, 2017
Currently Today's Max Today's Min Today's Average
Temperature 90.1°F32.3°C 94.3°F34.6°C 69.1°F20.6°C 80.4°F26.9°C
Dew Point 48.5°F9.2°C 80.5°F26.9°C 23.7°F-4.6°C 63.6°F17.6°C
Winds 0.7 mph E1.1 kmh E 3.1 mph N5.0 kmh N - 0.9 mph 1.4 kmh
Wind Gusts 6.0 mph9.7 kmh 8.3 mph13.4 kmh - -
Humidity 24% 96% 8% 69%
Pressure 29.45 in997.3 mb 29.50 in999.0 mb 29.40 in995.6 mb -
Hour Temp Dew Point Humidity Winds Wind Gusts Pressure Precip Precip Rate Daily Precip Total
04:15 PM 90.1°F32.3°C 48.5°F9.2°C 24% 0.7 mph E1.1 kmh E 6.0 mph9.7 kmh 29.45 in997.3 mb 0.00 in0.0 mm 0.00 in0.0 mm 0.00 in0.0 mm
04:00 PM 91.9°F33.3°C 45.2°F7.3°C 20% 2.2 mph SSE3.5 kmh SSE 6.9 mph11.1 kmh 29.46 in997.6 mb 0.00 in0.0 mm 0.00 in0.0 mm 0.00 in0.0 mm
03:45 PM 93.7°F34.3°C 31.4°F-0.3°C 11% 2.2 mph NE3.5 kmh NE 6.9 mph11.1 kmh 29.45 in997.3 mb 0.00 in0.0 mm 0.00 in0.0 mm 0.00 in0.0 mm
03:30 PM 94.3°F34.6°C 24.0°F-4.4°C 8% 0.7 mph N1.1 kmh N 4.5 mph7.2 kmh 29.45 in997.3 mb 0.00 in0.0 mm 0.00 in0.0 mm 0.00 in0.0 mm
03:15 PM 93.6°F34.2°C 28.9°F-1.7°C 10% 0.7 mph S1.1 kmh S 6.0 mph9.7 kmh 29.46 in997.6 mb 0.00 in0.0 mm 0.00 in0.0 mm 0.00 in0.0 mm
03:00 PM 93.7°F34.3°C 23.7°F-4.6°C 8% 3.1 mph SW5.0 kmh SW 6.9 mph11.1 kmh 29.46 in997.6 mb 0.00 in0.0 mm 0.00 in0.0 mm 0.00 in0.0 mm
02:45 PM 94.1°F34.5°C 37.7°F3.2°C 14% 0.7 mph SW1.1 kmh SW 6.0 mph9.7 kmh 29.47 in998.0 mb 0.00 in0.0 mm 0.00 in0.0 mm 0.00 in0.0 mm
02:30 PM 93.6°F34.2°C 33.4°F0.8°C 12% 0.7 mph SE1.1 kmh SE 5.4 mph8.7 kmh 29.47 in998.0 mb 0.00 in0.0 mm 0.00 in0.0 mm 0.00 in0.0 mm
02:15 PM 91.8°F33.2°C 47.6°F8.7°C 22% 2.2 mph SW3.5 kmh SW 6.0 mph9.7 kmh 29.47 in998.0 mb 0.00 in0.0 mm 0.00 in0.0 mm 0.00 in0.0 mm
02:00 PM 90.7°F32.6°C 47.9°F8.8°C 23% 0.7 mph SE1.1 kmh SE 5.4 mph8.7 kmh 29.47 in998.0 mb 0.00 in0.0 mm 0.00 in0.0 mm 0.00 in0.0 mm
01:45 PM 91.2°F32.9°C 49.4°F9.7°C 24% 2.2 mph N3.5 kmh N 6.9 mph11.1 kmh 29.48 in998.3 mb 0.00 in0.0 mm 0.00 in0.0 mm 0.00 in0.0 mm
01:30 PM 91.2°F32.9°C 48.3°F9.1°C 23% 3.1 mph NNW5.0 kmh NNW 7.6 mph12.2 kmh 29.48 in998.3 mb 0.00 in0.0 mm 0.00 in0.0 mm 0.00 in0.0 mm
01:15 PM 90.9°F32.7°C 48.0°F8.9°C 23% 1.6 mph N2.6 kmh N 6.9 mph11.1 kmh 29.48 in998.3 mb 0.00 in0.0 mm 0.00 in0.0 mm 0.00 in0.0 mm
01:00 PM 92.1°F33.4°C 47.9°F8.8°C 22% 3.1 mph E5.0 kmh E 6.0 mph9.7 kmh 29.48 in998.3 mb 0.00 in0.0 mm 0.00 in0.0 mm 0.00 in0.0 mm
12:45 PM 91.9°F33.3°C 53.2°F11.8°C 27% 0.7 mph WSW1.1 kmh WSW 6.0 mph9.7 kmh 29.48 in998.3 mb 0.00 in0.0 mm 0.00 in0.0 mm 0.00 in0.0 mm
12:30 PM 91.2°F32.9°C 50.5°F10.3°C 25% 2.2 mph SE3.5 kmh SE 6.9 mph11.1 kmh 29.48 in998.3 mb 0.00 in0.0 mm 0.00 in0.0 mm 0.00 in0.0 mm
12:15 PM 90.0°F32.2°C 52.5°F11.4°C 28% 2.2 mph SE3.5 kmh SE 4.5 mph7.2 kmh 29.49 in998.6 mb 0.00 in0.0 mm 0.00 in0.0 mm 0.00 in0.0 mm
12:00 PM 89.6°F32.0°C 53.2°F11.8°C 29% 1.6 mph SE2.6 kmh SE 3.8 mph6.1 kmh 29.50 in999.0 mb 0.00 in0.0 mm 0.00 in0.0 mm 0.00 in0.0 mm
11:45 AM 89.1°F31.7°C 57.9°F14.4°C 35% 1.6 mph NE2.6 kmh NE 6.9 mph11.1 kmh 29.49 in998.6 mb 0.00 in0.0 mm 0.00 in0.0 mm 0.00 in0.0 mm
11:30 AM 88.5°F31.4°C 61.2°F16.2°C 40% 1.6 mph N2.6 kmh N 4.5 mph7.2 kmh 29.49 in998.6 mb 0.00 in0.0 mm 0.00 in0.0 mm 0.00 in0.0 mm
11:15 AM 87.6°F30.9°C 62.4°F16.9°C 43% 1.6 mph N2.6 kmh N 7.6 mph12.2 kmh 29.50 in999.0 mb 0.00 in0.0 mm 0.00 in0.0 mm 0.00 in0.0 mm
11:00 AM 87.8°F31.0°C 65.1°F18.4°C 47% 0.7 mph N1.1 kmh N 6.9 mph11.1 kmh 29.50 in999.0 mb 0.00 in0.0 mm 0.00 in0.0 mm 0.00 in0.0 mm
10:45 AM 87.1°F30.6°C 66.8°F19.3°C 51% 0.7 mph WSW1.1 kmh WSW 8.3 mph13.4 kmh 29.50 in999.0 mb 0.00 in0.0 mm 0.00 in0.0 mm 0.00 in0.0 mm
10:30 AM 85.6°F29.8°C 70.7°F21.5°C 61% 0.7 mph N1.1 kmh N 6.0 mph9.7 kmh 29.50 in999.0 mb 0.00 in0.0 mm 0.00 in0.0 mm 0.00 in0.0 mm
10:15 AM 83.8°F28.8°C 75.9°F24.4°C 77% 3.1 mph N5.0 kmh N 5.4 mph8.7 kmh 29.50 in999.0 mb 0.00 in0.0 mm 0.00 in0.0 mm 0.00 in0.0 mm
10:00 AM 82.9°F28.3°C 76.9°F24.9°C 82% 1.6 mph N2.6 kmh N 3.8 mph6.1 kmh 29.50 in999.0 mb 0.00 in0.0 mm 0.00 in0.0 mm 0.00 in0.0 mm
09:45 AM 82.4°F28.0°C 78.9°F26.1°C 89% 0.7 mph N1.1 kmh N 3.8 mph6.1 kmh 29.50 in999.0 mb 0.00 in0.0 mm 0.00 in0.0 mm 0.00 in0.0 mm
09:30 AM 81.7°F27.6°C 80.5°F26.9°C 96% 0.7 mph N1.1 kmh N 4.5 mph7.2 kmh 29.50 in999.0 mb 0.00 in0.0 mm 0.00 in0.0 mm 0.00 in0.0 mm
09:15 AM 79.7°F26.5°C 78.5°F25.8°C 96% 1.6 mph SW2.6 kmh SW 5.4 mph8.7 kmh 29.50 in999.0 mb 0.00 in0.0 mm 0.00 in0.0 mm 0.00 in0.0 mm
09:00 AM 78.8°F26.0°C 77.6°F25.3°C 96% 0.7 mph SW1.1 kmh SW 3.8 mph6.1 kmh 29.48 in998.3 mb 0.00 in0.0 mm 0.00 in0.0 mm 0.00 in0.0 mm
08:45 AM 78.4°F25.8°C 77.3°F25.2°C 96% 1.6 mph SW2.6 kmh SW 3.1 mph5.0 kmh 29.48 in998.3 mb 0.00 in0.0 mm 0.00 in0.0 mm 0.00 in0.0 mm
08:30 AM 77.2°F25.1°C 76.0°F24.4°C 96% 1.6 mph SW2.6 kmh SW 6.0 mph9.7 kmh 29.48 in998.3 mb 0.00 in0.0 mm 0.00 in0.0 mm 0.00 in0.0 mm
08:15 AM 76.6°F24.8°C 75.5°F24.2°C 96% Calm Calm 3.8 mph6.1 kmh 29.48 in998.3 mb 0.00 in0.0 mm 0.00 in0.0 mm 0.00 in0.0 mm
08:00 AM 74.5°F23.6°C 73.3°F22.9°C 96% 0.7 mph SW1.1 kmh SW 2.2 mph3.5 kmh 29.47 in998.0 mb 0.00 in0.0 mm 0.00 in0.0 mm 0.00 in0.0 mm
07:45 AM 72.7°F22.6°C 71.5°F21.9°C 96% Calm Calm 3.1 mph5.0 kmh 29.47 in998.0 mb 0.00 in0.0 mm 0.00 in0.0 mm 0.00 in0.0 mm
07:30 AM 70.7°F21.5°C 69.5°F20.8°C 96% Calm Calm 0.7 mph1.1 kmh 29.46 in997.6 mb 0.00 in0.0 mm 0.00 in0.0 mm 0.00 in0.0 mm
07:15 AM 69.4°F20.8°C 68.3°F20.2°C 96% Calm Calm 1.6 mph2.6 kmh 29.46 in997.6 mb 0.00 in0.0 mm 0.00 in0.0 mm 0.00 in0.0 mm
07:00 AM 69.1°F20.6°C 67.9°F19.9°C 96% Calm Calm 0.7 mph1.1 kmh 29.45 in997.3 mb 0.00 in0.0 mm 0.00 in0.0 mm 0.00 in0.0 mm
06:45 AM 69.4°F20.8°C 68.3°F20.2°C 96% Calm Calm 0.7 mph1.1 kmh 29.44 in997.0 mb 0.00 in0.0 mm 0.00 in0.0 mm 0.00 in0.0 mm
06:30 AM 69.8°F21.0°C 68.6°F20.3°C 96% Calm Calm 1.6 mph2.6 kmh 29.44 in997.0 mb 0.00 in0.0 mm 0.00 in0.0 mm 0.00 in0.0 mm
06:15 AM 70.2°F21.2°C 69.0°F20.6°C 96% 0.7 mph SW1.1 kmh SW 1.6 mph2.6 kmh 29.43 in996.6 mb 0.00 in0.0 mm 0.00 in0.0 mm 0.00 in0.0 mm
06:00 AM 70.3°F21.3°C 69.2°F20.7°C 96% Calm Calm -- 29.43 in996.6 mb 0.00 in0.0 mm 0.00 in0.0 mm 0.00 in0.0 mm
05:45 AM 70.3°F21.3°C 69.2°F20.7°C 96% Calm Calm 1.6 mph2.6 kmh 29.43 in996.6 mb 0.00 in0.0 mm 0.00 in0.0 mm 0.00 in0.0 mm
05:30 AM 70.5°F21.4°C 69.4°F20.8°C 96% 0.7 mph SW1.1 kmh SW 1.6 mph2.6 kmh 29.42 in996.3 mb 0.00 in0.0 mm 0.00 in0.0 mm 0.00 in0.0 mm
05:15 AM 70.9°F21.6°C 69.7°F20.9°C 96% Calm Calm 0.7 mph1.1 kmh 29.43 in996.6 mb 0.00 in0.0 mm 0.00 in0.0 mm 0.00 in0.0 mm
05:00 AM 71.2°F21.8°C 70.1°F21.2°C 96% Calm Calm 1.6 mph2.6 kmh 29.43 in996.6 mb 0.00 in0.0 mm 0.00 in0.0 mm 0.00 in0.0 mm
04:45 AM 71.1°F21.7°C 69.9°F21.1°C 96% Calm Calm 1.6 mph2.6 kmh 29.43 in996.6 mb 0.00 in0.0 mm 0.00 in0.0 mm 0.00 in0.0 mm
04:30 AM 70.9°F21.6°C 69.7°F20.9°C 96% 0.7 mph SW1.1 kmh SW 1.6 mph2.6 kmh 29.43 in996.6 mb 0.00 in0.0 mm 0.00 in0.0 mm 0.00 in0.0 mm
04:15 AM 70.5°F21.4°C 69.4°F20.8°C 96% Calm Calm 0.7 mph1.1 kmh 29.43 in996.6 mb 0.00 in0.0 mm 0.00 in0.0 mm 0.00 in0.0 mm
04:00 AM 70.7°F21.5°C 69.5°F20.8°C 96% Calm Calm 0.7 mph1.1 kmh 29.42 in996.3 mb 0.00 in0.0 mm 0.00 in0.0 mm 0.00 in0.0 mm
03:45 AM 70.9°F21.6°C 69.7°F20.9°C 96% 0.7 mph SW1.1 kmh SW 1.6 mph2.6 kmh 29.42 in996.3 mb 0.00 in0.0 mm 0.00 in0.0 mm 0.00 in0.0 mm
03:30 AM 71.2°F21.8°C 70.1°F21.2°C 96% Calm Calm 1.6 mph2.6 kmh 29.41 in995.9 mb 0.00 in0.0 mm 0.00 in0.0 mm 0.00 in0.0 mm
03:15 AM 71.6°F22.0°C 70.4°F21.3°C 96% Calm Calm -- 29.42 in996.3 mb 0.00 in0.0 mm 0.00 in0.0 mm 0.00 in0.0 mm
03:00 AM 71.8°F22.1°C 70.6°F21.4°C 96% Calm Calm 0.7 mph1.1 kmh 29.42 in996.3 mb 0.00 in0.0 mm 0.00 in0.0 mm 0.00 in0.0 mm
02:45 AM 71.8°F22.1°C 70.6°F21.4°C 96% Calm Calm -- 29.42 in996.3 mb 0.00 in0.0 mm 0.00 in0.0 mm 0.00 in0.0 mm
02:30 AM 72.9°F22.7°C 71.7°F22.1°C 96% Calm Calm 1.6 mph2.6 kmh 29.42 in996.3 mb 0.00 in0.0 mm 0.00 in0.0 mm 0.00 in0.0 mm
02:15 AM 73.6°F23.1°C 72.4°F22.4°C 96% Calm Calm 0.7 mph1.1 kmh 29.42 in996.3 mb 0.00 in0.0 mm 0.00 in0.0 mm 0.00 in0.0 mm
02:00 AM 74.3°F23.5°C 73.1°F22.8°C 96% Calm Calm 0.7 mph1.1 kmh 29.42 in996.3 mb 0.00 in0.0 mm 0.00 in0.0 mm 0.00 in0.0 mm
01:45 AM 75.4°F24.1°C 74.2°F23.4°C 96% Calm Calm 1.6 mph2.6 kmh 29.42 in996.3 mb 0.00 in0.0 mm 0.00 in0.0 mm 0.00 in0.0 mm
01:30 AM 76.3°F24.6°C 75.1°F23.9°C 96% Calm Calm 1.6 mph2.6 kmh 29.42 in996.3 mb 0.00 in0.0 mm 0.00 in0.0 mm 0.00 in0.0 mm
01:15 AM 77.2°F25.1°C 76.0°F24.4°C 96% Calm Calm 3.1 mph5.0 kmh 29.43 in996.6 mb 0.00 in0.0 mm 0.00 in0.0 mm 0.00 in0.0 mm
01:00 AM 78.1°F25.6°C 75.0°F23.9°C 90% 0.7 mph SW1.1 kmh SW 6.0 mph9.7 kmh 29.43 in996.6 mb 0.00 in0.0 mm 0.00 in0.0 mm 0.00 in0.0 mm
12:45 AM 78.8°F26.0°C 73.6°F23.1°C 84% 1.6 mph WSW2.6 kmh WSW 6.9 mph11.1 kmh 29.43 in996.6 mb 0.00 in0.0 mm 0.00 in0.0 mm 0.00 in0.0 mm
12:30 AM 79.7°F26.5°C 72.7°F22.6°C 79% 2.2 mph W3.5 kmh W 8.3 mph13.4 kmh 29.42 in996.3 mb 0.00 in0.0 mm 0.00 in0.0 mm 0.00 in0.0 mm
12:15 AM 79.7°F26.5°C 72.7°F22.6°C 79% 1.6 mph NE2.6 kmh NE 6.9 mph11.1 kmh 29.41 in995.9 mb 0.00 in0.0 mm 0.00 in0.0 mm 0.00 in0.0 mm
12:00 AM 79.5°F26.4°C 73.2°F22.9°C 81% 1.6 mph N2.6 kmh N 6.0 mph9.7 kmh 29.40 in995.6 mb 0.00 in0.0 mm 0.00 in0.0 mm 0.00 in0.0 mm